sensor_id;sensor_type;location;lat;lon;timestamp;P1;durP1;ratioP1;P2;durP2;ratioP2
29774;SDS011;16676;51.202;6.774;2024-03-29T00:01:54;1.63;;;0.77;;
29774;SDS011;16676;51.202;6.774;2024-03-29T00:05:55;4.10;;;0.80;;
29774;SDS011;16676;51.202;6.774;2024-03-29T00:09:58;2.35;;;0.80;;
29774;SDS011;16676;51.202;6.774;2024-03-29T00:13:59;3.10;;;0.90;;
29774;SDS011;16676;51.202;6.774;2024-03-29T00:18:00;2.25;;;0.90;;
29774;SDS011;16676;51.202;6.774;2024-03-29T00:22:01;1.63;;;0.60;;
29774;SDS011;16676;51.202;6.774;2024-03-29T00:26:03;1.67;;;0.70;;
29774;SDS011;16676;51.202;6.774;2024-03-29T00:30:05;1.30;;;0.57;;
29774;SDS011;16676;51.202;6.774;2024-03-29T00:34:07;1.38;;;0.65;;
29774;SDS011;16676;51.202;6.774;2024-03-29T00:38:08;3.55;;;1.17;;
29774;SDS011;16676;51.202;6.774;2024-03-29T00:42:10;2.40;;;0.80;;
29774;SDS011;16676;51.202;6.774;2024-03-29T00:46:12;1.73;;;0.80;;
29774;SDS011;16676;51.202;6.774;2024-03-29T00:50:13;1.90;;;0.85;;
29774;SDS011;16676;51.202;6.774;2024-03-29T00:54:14;2.35;;;0.90;;
29774;SDS011;16676;51.202;6.774;2024-03-29T00:58:16;1.73;;;0.65;;
29774;SDS011;16676;51.202;6.774;2024-03-29T01:02:17;2.50;;;0.85;;
29774;SDS011;16676;51.202;6.774;2024-03-29T01:06:19;3.17;;;0.93;;
29774;SDS011;16676;51.202;6.774;2024-03-29T01:10:20;2.90;;;0.65;;
29774;SDS011;16676;51.202;6.774;2024-03-29T01:14:23;2.67;;;0.80;;
29774;SDS011;16676;51.202;6.774;2024-03-29T01:18:24;1.75;;;0.70;;
29774;SDS011;16676;51.202;6.774;2024-03-29T01:22:25;2.85;;;0.98;;
29774;SDS011;16676;51.202;6.774;2024-03-29T01:26:26;4.72;;;1.20;;
29774;SDS011;16676;51.202;6.774;2024-03-29T01:30:29;2.33;;;0.90;;
29774;SDS011;16676;51.202;6.774;2024-03-29T01:34:30;3.13;;;1.02;;
29774;SDS011;16676;51.202;6.774;2024-03-29T01:38:31;2.35;;;0.80;;
29774;SDS011;16676;51.202;6.774;2024-03-29T01:42:32;2.20;;;0.95;;
29774;SDS011;16676;51.202;6.774;2024-03-29T01:46:35;1.00;;;0.70;;
29774;SDS011;16676;51.202;6.774;2024-03-29T01:50:38;3.63;;;0.75;;
29774;SDS011;16676;51.202;6.774;2024-03-29T01:54:40;1.20;;;0.70;;
29774;SDS011;16676;51.202;6.774;2024-03-29T01:58:43;1.98;;;0.63;;
29774;SDS011;16676;51.202;6.774;2024-03-29T02:02:47;2.72;;;0.57;;
29774;SDS011;16676;51.202;6.774;2024-03-29T02:06:49;1.13;;;0.52;;
29774;SDS011;16676;51.202;6.774;2024-03-29T02:10:52;1.92;;;0.68;;
29774;SDS011;16676;51.202;6.774;2024-03-29T02:14:54;1.42;;;0.60;;
29774;SDS011;16676;51.202;6.774;2024-03-29T02:18:57;4.15;;;0.82;;
29774;SDS011;16676;51.202;6.774;2024-03-29T02:23:00;1.73;;;0.50;;
29774;SDS011;16676;51.202;6.774;2024-03-29T02:27:19;2.00;;;0.50;;
29774;SDS011;16676;51.202;6.774;2024-03-29T02:31:22;2.90;;;0.50;;
29774;SDS011;16676;51.202;6.774;2024-03-29T02:35:25;0.88;;;0.52;;
29774;SDS011;16676;51.202;6.774;2024-03-29T02:39:27;2.78;;;0.80;;
29774;SDS011;16676;51.202;6.774;2024-03-29T02:43:31;2.38;;;0.77;;
29774;SDS011;16676;51.202;6.774;2024-03-29T02:47:33;2.90;;;0.82;;
29774;SDS011;16676;51.202;6.774;2024-03-29T02:51:35;2.33;;;0.75;;
29774;SDS011;16676;51.202;6.774;2024-03-29T02:55:37;1.52;;;0.60;;
29774;SDS011;16676;51.202;6.774;2024-03-29T02:59:40;1.58;;;0.70;;
29774;SDS011;16676;51.202;6.774;2024-03-29T03:03:42;0.98;;;0.40;;
29774;SDS011;16676;51.202;6.774;2024-03-29T03:07:44;1.70;;;0.60;;
29774;SDS011;16676;51.202;6.774;2024-03-29T03:12:04;1.58;;;0.52;;
29774;SDS011;16676;51.202;6.774;2024-03-29T03:16:08;1.48;;;0.50;;
29774;SDS011;16676;51.202;6.774;2024-03-29T03:20:10;1.58;;;0.50;;
29774;SDS011;16676;51.202;6.774;2024-03-29T03:24:13;1.85;;;0.70;;
29774;SDS011;16676;51.202;6.774;2024-03-29T03:28:15;1.73;;;0.63;;
29774;SDS011;16676;51.202;6.774;2024-03-29T03:32:19;2.10;;;0.75;;
29774;SDS011;16676;51.202;6.774;2024-03-29T03:36:21;2.35;;;0.80;;
29774;SDS011;16676;51.202;6.774;2024-03-29T03:40:23;1.42;;;0.60;;
29774;SDS011;16676;51.202;6.774;2024-03-29T03:44:25;2.10;;;0.70;;
29774;SDS011;16676;51.202;6.774;2024-03-29T03:48:30;4.05;;;0.80;;
29774;SDS011;16676;51.202;6.774;2024-03-29T03:52:32;2.30;;;0.52;;
29774;SDS011;16676;51.202;6.774;2024-03-29T03:56:34;0.75;;;0.32;;
29774;SDS011;16676;51.202;6.774;2024-03-29T04:00:37;1.60;;;0.70;;
29774;SDS011;16676;51.202;6.774;2024-03-29T04:04:40;1.30;;;0.50;;
29774;SDS011;16676;51.202;6.774;2024-03-29T04:08:43;2.33;;;0.52;;
29774;SDS011;16676;51.202;6.774;2024-03-29T04:12:45;3.10;;;0.75;;
29774;SDS011;16676;51.202;6.774;2024-03-29T04:16:47;1.90;;;0.80;;
29774;SDS011;16676;51.202;6.774;2024-03-29T04:20:56;0.85;;;0.40;;
29774;SDS011;16676;51.202;6.774;2024-03-29T04:24:58;2.35;;;0.93;;
29774;SDS011;16676;51.202;6.774;2024-03-29T04:29:00;1.60;;;0.60;;
29774;SDS011;16676;51.202;6.774;2024-03-29T04:33:02;1.70;;;0.60;;
29774;SDS011;16676;51.202;6.774;2024-03-29T04:37:06;0.88;;;0.45;;
29774;SDS011;16676;51.202;6.774;2024-03-29T04:41:08;1.80;;;0.60;;
29774;SDS011;16676;51.202;6.774;2024-03-29T04:45:10;1.42;;;0.57;;
29774;SDS011;16676;51.202;6.774;2024-03-29T04:49:12;1.35;;;0.70;;
29774;SDS011;16676;51.202;6.774;2024-03-29T04:53:15;2.72;;;0.75;;
29774;SDS011;16676;51.202;6.774;2024-03-29T04:57:17;1.67;;;0.60;;
29774;SDS011;16676;51.202;6.774;2024-03-29T05:01:19;0.98;;;0.47;;
29774;SDS011;16676;51.202;6.774;2024-03-29T05:05:21;1.52;;;0.52;;
29774;SDS011;16676;51.202;6.774;2024-03-29T05:09:24;0.88;;;0.55;;
29774;SDS011;16676;51.202;6.774;2024-03-29T05:13:27;1.75;;;0.63;;
29774;SDS011;16676;51.202;6.774;2024-03-29T05:17:31;1.48;;;0.40;;
29774;SDS011;16676;51.202;6.774;2024-03-29T05:21:33;1.52;;;0.50;;
29774;SDS011;16676;51.202;6.774;2024-03-29T05:25:36;1.95;;;0.50;;
29774;SDS011;16676;51.202;6.774;2024-03-29T05:29:38;1.40;;;0.50;;
29774;SDS011;16676;51.202;6.774;2024-03-29T05:33:40;1.38;;;0.60;;
29774;SDS011;16676;51.202;6.774;2024-03-29T05:37:42;1.38;;;0.57;;
29774;SDS011;16676;51.202;6.774;2024-03-29T05:41:51;1.58;;;0.63;;
29774;SDS011;16676;51.202;6.774;2024-03-29T05:45:53;1.15;;;0.50;;
29774;SDS011;16676;51.202;6.774;2024-03-29T05:49:55;1.70;;;0.60;;
29774;SDS011;16676;51.202;6.774;2024-03-29T05:53:57;1.33;;;0.55;;
29774;SDS011;16676;51.202;6.774;2024-03-29T05:58:00;1.38;;;0.50;;
29774;SDS011;16676;51.202;6.774;2024-03-29T06:02:03;2.75;;;0.75;;
29774;SDS011;16676;51.202;6.774;2024-03-29T06:06:05;1.17;;;0.60;;
29774;SDS011;16676;51.202;6.774;2024-03-29T06:10:10;1.23;;;0.50;;
29774;SDS011;16676;51.202;6.774;2024-03-29T06:14:14;1.95;;;0.60;;
29774;SDS011;16676;51.202;6.774;2024-03-29T06:18:33;2.30;;;0.43;;
29774;SDS011;16676;51.202;6.774;2024-03-29T06:22:35;1.50;;;0.52;;
29774;SDS011;16676;51.202;6.774;2024-03-29T06:26:37;2.13;;;0.63;;
29774;SDS011;16676;51.202;6.774;2024-03-29T06:30:41;1.40;;;0.68;;
29774;SDS011;16676;51.202;6.774;2024-03-29T06:34:43;2.50;;;0.90;;
29774;SDS011;16676;51.202;6.774;2024-03-29T06:38:46;1.48;;;0.50;;
29774;SDS011;16676;51.202;6.774;2024-03-29T06:42:47;2.15;;;0.55;;
29774;SDS011;16676;51.202;6.774;2024-03-29T06:46:51;2.05;;;0.40;;
29774;SDS011;16676;51.202;6.774;2024-03-29T06:50:53;1.77;;;0.40;;
29774;SDS011;16676;51.202;6.774;2024-03-29T06:54:55;1.45;;;0.60;;
29774;SDS011;16676;51.202;6.774;2024-03-29T06:58:57;1.13;;;0.45;;
29774;SDS011;16676;51.202;6.774;2024-03-29T07:03:01;1.00;;;0.50;;
29774;SDS011;16676;51.202;6.774;2024-03-29T07:07:03;1.45;;;0.40;;
29774;SDS011;16676;51.202;6.774;2024-03-29T07:11:05;1.92;;;0.68;;
29774;SDS011;16676;51.202;6.774;2024-03-29T07:15:07;0.88;;;0.35;;
29774;SDS011;16676;51.202;6.774;2024-03-29T07:19:11;1.27;;;0.65;;
29774;SDS011;16676;51.202;6.774;2024-03-29T07:23:16;3.35;;;0.60;;
29774;SDS011;16676;51.202;6.774;2024-03-29T07:27:18;5.20;;;0.73;;
29774;SDS011;16676;51.202;6.774;2024-03-29T07:31:20;2.50;;;0.60;;
29774;SDS011;16676;51.202;6.774;2024-03-29T07:35:23;2.78;;;0.85;;
29774;SDS011;16676;51.202;6.774;2024-03-29T07:39:25;3.97;;;0.70;;
29774;SDS011;16676;51.202;6.774;2024-03-29T07:43:29;3.97;;;0.70;;
29774;SDS011;16676;51.202;6.774;2024-03-29T07:47:39;4.32;;;0.88;;
29774;SDS011;16676;51.202;6.774;2024-03-29T07:51:42;3.60;;;0.70;;
29774;SDS011;16676;51.202;6.774;2024-03-29T07:55:44;5.47;;;1.30;;
29774;SDS011;16676;51.202;6.774;2024-03-29T07:59:46;5.45;;;1.08;;
29774;SDS011;16676;51.202;6.774;2024-03-29T08:03:50;3.95;;;0.93;;
29774;SDS011;16676;51.202;6.774;2024-03-29T08:07:55;5.45;;;0.90;;
29774;SDS011;16676;51.202;6.774;2024-03-29T08:11:57;2.95;;;0.80;;
29774;SDS011;16676;51.202;6.774;2024-03-29T08:15:59;4.55;;;1.00;;
29774;SDS011;16676;51.202;6.774;2024-03-29T08:20:01;2.22;;;0.90;;
29774;SDS011;16676;51.202;6.774;2024-03-29T08:24:05;2.15;;;0.93;;
29774;SDS011;16676;51.202;6.774;2024-03-29T08:28:08;2.97;;;0.80;;
29774;SDS011;16676;51.202;6.774;2024-03-29T08:32:11;2.28;;;0.75;;
29774;SDS011;16676;51.202;6.774;2024-03-29T08:36:13;3.03;;;0.82;;
29774;SDS011;16676;51.202;6.774;2024-03-29T08:40:17;4.57;;;0.70;;
29774;SDS011;16676;51.202;6.774;2024-03-29T08:44:18;2.47;;;0.80;;
29774;SDS011;16676;51.202;6.774;2024-03-29T08:48:21;3.33;;;1.05;;
29774;SDS011;16676;51.202;6.774;2024-03-29T08:52:24;1.48;;;0.77;;
29774;SDS011;16676;51.202;6.774;2024-03-29T08:56:27;3.42;;;1.05;;
29774;SDS011;16676;51.202;6.774;2024-03-29T09:00:30;2.30;;;0.88;;
29774;SDS011;16676;51.202;6.774;2024-03-29T09:04:32;5.72;;;1.00;;
29774;SDS011;16676;51.202;6.774;2024-03-29T09:08:35;3.10;;;1.08;;
29774;SDS011;16676;51.202;6.774;2024-03-29T09:12:38;1.95;;;0.80;;
29774;SDS011;16676;51.202;6.774;2024-03-29T09:16:40;5.38;;;1.00;;
29774;SDS011;16676;51.202;6.774;2024-03-29T09:20:43;3.65;;;0.98;;
29774;SDS011;16676;51.202;6.774;2024-03-29T09:24:46;1.73;;;0.60;;
29774;SDS011;16676;51.202;6.774;2024-03-29T09:28:49;2.20;;;0.80;;
29774;SDS011;16676;51.202;6.774;2024-03-29T09:32:51;1.23;;;0.30;;
29774;SDS011;16676;51.202;6.774;2024-03-29T09:36:53;3.22;;;0.57;;
29774;SDS011;16676;51.202;6.774;2024-03-29T09:40:56;1.25;;;0.50;;
29774;SDS011;16676;51.202;6.774;2024-03-29T09:45:08;1.58;;;0.43;;
29774;SDS011;16676;51.202;6.774;2024-03-29T09:49:15;2.65;;;0.70;;
29774;SDS011;16676;51.202;6.774;2024-03-29T09:53:17;2.67;;;1.05;;
29774;SDS011;16676;51.202;6.774;2024-03-29T09:57:22;3.17;;;1.05;;
29774;SDS011;16676;51.202;6.774;2024-03-29T10:01:31;2.37;;;0.80;;
29774;SDS011;16676;51.202;6.774;2024-03-29T10:05:33;2.78;;;0.90;;
29774;SDS011;16676;51.202;6.774;2024-03-29T10:09:36;4.00;;;1.08;;
29774;SDS011;16676;51.202;6.774;2024-03-29T10:13:38;2.28;;;0.70;;
29774;SDS011;16676;51.202;6.774;2024-03-29T10:17:46;0.95;;;0.40;;
29774;SDS011;16676;51.202;6.774;2024-03-29T10:21:49;1.42;;;0.50;;
29774;SDS011;16676;51.202;6.774;2024-03-29T10:25:51;1.13;;;0.50;;
29774;SDS011;16676;51.202;6.774;2024-03-29T10:29:53;4.53;;;0.63;;
29774;SDS011;16676;51.202;6.774;2024-03-29T10:34:01;2.67;;;0.75;;
29774;SDS011;16676;51.202;6.774;2024-03-29T10:38:04;1.83;;;0.70;;
29774;SDS011;16676;51.202;6.774;2024-03-29T10:42:06;1.45;;;0.65;;
29774;SDS011;16676;51.202;6.774;2024-03-29T10:46:11;2.10;;;0.45;;
29774;SDS011;16676;51.202;6.774;2024-03-29T10:50:15;2.63;;;0.70;;
29774;SDS011;16676;51.202;6.774;2024-03-29T10:54:21;1.52;;;0.52;;
29774;SDS011;16676;51.202;6.774;2024-03-29T10:58:25;1.73;;;0.32;;
29774;SDS011;16676;51.202;6.774;2024-03-29T11:02:34;1.50;;;0.80;;
29774;SDS011;16676;51.202;6.774;2024-03-29T11:06:46;2.75;;;0.45;;
29774;SDS011;16676;51.202;6.774;2024-03-29T11:10:53;1.33;;;0.55;;
29774;SDS011;16676;51.202;6.774;2024-03-29T11:15:00;3.03;;;0.55;;
29774;SDS011;16676;51.202;6.774;2024-03-29T11:19:04;7.45;;;1.08;;
29774;SDS011;16676;51.202;6.774;2024-03-29T11:23:09;3.53;;;0.65;;
29774;SDS011;16676;51.202;6.774;2024-03-29T11:27:13;4.10;;;0.57;;
29774;SDS011;16676;51.202;6.774;2024-03-29T11:31:16;1.77;;;0.50;;
29774;SDS011;16676;51.202;6.774;2024-03-29T11:35:19;6.07;;;0.70;;
29774;SDS011;16676;51.202;6.774;2024-03-29T11:39:25;0.70;;;0.40;;
29774;SDS011;16676;51.202;6.774;2024-03-29T11:43:27;3.45;;;0.70;;
29774;SDS011;16676;51.202;6.774;2024-03-29T11:47:29;3.88;;;0.73;;
29774;SDS011;16676;51.202;6.774;2024-03-29T11:51:33;1.10;;;0.63;;
29774;SDS011;16676;51.202;6.774;2024-03-29T11:55:37;10.98;;;3.88;;
29774;SDS011;16676;51.202;6.774;2024-03-29T11:59:38;15.90;;;7.22;;
29774;SDS011;16676;51.202;6.774;2024-03-29T12:03:41;15.98;;;8.23;;
29774;SDS011;16676;51.202;6.774;2024-03-29T12:07:45;19.73;;;10.13;;
29774;SDS011;16676;51.202;6.774;2024-03-29T12:11:48;24.65;;;11.77;;
29774;SDS011;16676;51.202;6.774;2024-03-29T12:15:51;24.38;;;12.68;;
29774;SDS011;16676;51.202;6.774;2024-03-29T12:19:57;20.25;;;12.00;;
29774;SDS011;16676;51.202;6.774;2024-03-29T12:24:01;20.45;;;11.77;;
29774;SDS011;16676;51.202;6.774;2024-03-29T12:28:05;23.80;;;11.23;;
29774;SDS011;16676;51.202;6.774;2024-03-29T12:32:07;19.45;;;10.70;;
29774;SDS011;16676;51.202;6.774;2024-03-29T12:36:11;19.02;;;10.00;;
29774;SDS011;16676;51.202;6.774;2024-03-29T12:40:15;22.00;;;9.20;;
29774;SDS011;16676;51.202;6.774;2024-03-29T12:44:23;20.45;;;8.93;;
29774;SDS011;16676;51.202;6.774;2024-03-29T12:48:25;16.55;;;9.15;;
29774;SDS011;16676;51.202;6.774;2024-03-29T12:52:27;14.40;;;7.70;;
29774;SDS011;16676;51.202;6.774;2024-03-29T12:56:37;15.15;;;7.93;;
29774;SDS011;16676;51.202;6.774;2024-03-29T13:00:42;16.75;;;7.68;;
29774;SDS011;16676;51.202;6.774;2024-03-29T13:04:44;16.83;;;7.38;;
29774;SDS011;16676;51.202;6.774;2024-03-29T13:08:46;14.30;;;7.10;;
29774;SDS011;16676;51.202;6.774;2024-03-29T13:12:49;15.27;;;7.05;;
29774;SDS011;16676;51.202;6.774;2024-03-29T13:16:53;13.20;;;6.70;;
29774;SDS011;16676;51.202;6.774;2024-03-29T13:20:55;12.00;;;6.22;;
29774;SDS011;16676;51.202;6.774;2024-03-29T13:24:59;13.05;;;5.85;;
29774;SDS011;16676;51.202;6.774;2024-03-29T13:29:01;12.27;;;5.78;;
29774;SDS011;16676;51.202;6.774;2024-03-29T13:33:05;10.02;;;5.57;;
29774;SDS011;16676;51.202;6.774;2024-03-29T13:37:06;12.57;;;5.72;;
29774;SDS011;16676;51.202;6.774;2024-03-29T13:41:09;11.35;;;5.35;;
29774;SDS011;16676;51.202;6.774;2024-03-29T13:45:13;10.88;;;5.32;;
29774;SDS011;16676;51.202;6.774;2024-03-29T13:49:17;10.32;;;5.55;;
29774;SDS011;16676;51.202;6.774;2024-03-29T13:53:20;7.82;;;4.70;;
29774;SDS011;16676;51.202;6.774;2024-03-29T13:57:22;11.65;;;4.60;;
29774;SDS011;16676;51.202;6.774;2024-03-29T14:01:25;7.60;;;4.07;;
29774;SDS011;16676;51.202;6.774;2024-03-29T14:05:28;9.40;;;4.55;;
29774;SDS011;16676;51.202;6.774;2024-03-29T14:09:30;11.98;;;4.95;;
29774;SDS011;16676;51.202;6.774;2024-03-29T14:13:32;9.75;;;4.10;;
29774;SDS011;16676;51.202;6.774;2024-03-29T14:17:34;10.55;;;4.28;;
29774;SDS011;16676;51.202;6.774;2024-03-29T14:21:39;8.55;;;3.50;;
29774;SDS011;16676;51.202;6.774;2024-03-29T14:25:41;7.78;;;3.90;;
29774;SDS011;16676;51.202;6.774;2024-03-29T14:29:43;8.20;;;3.35;;
29774;SDS011;16676;51.202;6.774;2024-03-29T14:33:46;8.23;;;3.50;;
29774;SDS011;16676;51.202;6.774;2024-03-29T14:37:50;5.35;;;3.00;;
29774;SDS011;16676;51.202;6.774;2024-03-29T14:41:52;6.15;;;2.97;;
29774;SDS011;16676;51.202;6.774;2024-03-29T14:45:54;6.55;;;3.30;;
29774;SDS011;16676;51.202;6.774;2024-03-29T14:49:56;5.63;;;3.22;;
29774;SDS011;16676;51.202;6.774;2024-03-29T14:54:00;3.92;;;2.35;;
29774;SDS011;16676;51.202;6.774;2024-03-29T14:58:04;6.72;;;3.03;;
29774;SDS011;16676;51.202;6.774;2024-03-29T15:02:05;5.50;;;2.50;;
29774;SDS011;16676;51.202;6.774;2024-03-29T15:06:07;5.32;;;2.42;;
29774;SDS011;16676;51.202;6.774;2024-03-29T15:10:11;5.20;;;2.38;;
29774;SDS011;16676;51.202;6.774;2024-03-29T15:14:14;5.22;;;2.50;;
29774;SDS011;16676;51.202;6.774;2024-03-29T15:18:16;4.25;;;2.33;;
29774;SDS011;16676;51.202;6.774;2024-03-29T15:22:18;6.00;;;2.47;;
29774;SDS011;16676;51.202;6.774;2024-03-29T15:26:22;4.05;;;2.20;;
29774;SDS011;16676;51.202;6.774;2024-03-29T15:30:26;3.40;;;2.10;;
29774;SDS011;16676;51.202;6.774;2024-03-29T15:34:27;3.10;;;1.80;;
29774;SDS011;16676;51.202;6.774;2024-03-29T15:38:29;5.60;;;1.98;;
29774;SDS011;16676;51.202;6.774;2024-03-29T15:42:34;4.15;;;2.25;;
29774;SDS011;16676;51.202;6.774;2024-03-29T15:46:37;3.08;;;1.63;;
29774;SDS011;16676;51.202;6.774;2024-03-29T15:50:40;6.55;;;1.90;;
29774;SDS011;16676;51.202;6.774;2024-03-29T15:54:42;3.65;;;2.00;;
29774;SDS011;16676;51.202;6.774;2024-03-29T15:58:46;5.03;;;1.98;;
29774;SDS011;16676;51.202;6.774;2024-03-29T16:02:48;4.30;;;1.60;;
29774;SDS011;16676;51.202;6.774;2024-03-29T16:06:50;3.83;;;1.35;;
29774;SDS011;16676;51.202;6.774;2024-03-29T16:10:53;2.45;;;1.33;;
29774;SDS011;16676;51.202;6.774;2024-03-29T16:14:57;2.83;;;1.05;;
29774;SDS011;16676;51.202;6.774;2024-03-29T16:18:59;2.85;;;1.50;;
29774;SDS011;16676;51.202;6.774;2024-03-29T16:23:02;3.05;;;1.40;;
29774;SDS011;16676;51.202;6.774;2024-03-29T16:27:04;2.58;;;1.48;;
29774;SDS011;16676;51.202;6.774;2024-03-29T16:31:08;2.88;;;1.42;;
29774;SDS011;16676;51.202;6.774;2024-03-29T16:35:10;1.55;;;1.00;;
29774;SDS011;16676;51.202;6.774;2024-03-29T16:39:12;2.92;;;1.48;;
29774;SDS011;16676;51.202;6.774;2024-03-29T16:43:14;2.10;;;1.13;;
29774;SDS011;16676;51.202;6.774;2024-03-29T16:47:18;2.83;;;1.33;;
29774;SDS011;16676;51.202;6.774;2024-03-29T16:51:20;3.33;;;1.40;;
29774;SDS011;16676;51.202;6.774;2024-03-29T16:55:22;2.65;;;1.50;;
29774;SDS011;16676;51.202;6.774;2024-03-29T16:59:25;4.82;;;1.88;;
29774;SDS011;16676;51.202;6.774;2024-03-29T17:03:29;2.20;;;1.50;;
29774;SDS011;16676;51.202;6.774;2024-03-29T17:07:31;3.15;;;0.98;;
29774;SDS011;16676;51.202;6.774;2024-03-29T17:11:33;3.28;;;1.48;;
29774;SDS011;16676;51.202;6.774;2024-03-29T17:15:35;2.47;;;1.20;;
29774;SDS011;16676;51.202;6.774;2024-03-29T17:19:38;2.00;;;1.15;;
29774;SDS011;16676;51.202;6.774;2024-03-29T17:23:40;3.08;;;1.27;;
29774;SDS011;16676;51.202;6.774;2024-03-29T17:27:42;1.83;;;1.20;;
29774;SDS011;16676;51.202;6.774;2024-03-29T17:31:43;2.25;;;1.10;;
29774;SDS011;16676;51.202;6.774;2024-03-29T17:35:46;2.10;;;1.02;;
29774;SDS011;16676;51.202;6.774;2024-03-29T17:39:49;1.73;;;0.98;;
29774;SDS011;16676;51.202;6.774;2024-03-29T17:43:51;1.67;;;1.00;;
29774;SDS011;16676;51.202;6.774;2024-03-29T17:47:53;3.53;;;1.27;;
29774;SDS011;16676;51.202;6.774;2024-03-29T17:51:57;2.13;;;1.05;;
29774;SDS011;16676;51.202;6.774;2024-03-29T17:55:58;1.75;;;1.10;;
29774;SDS011;16676;51.202;6.774;2024-03-29T17:59:59;2.22;;;1.17;;
29774;SDS011;16676;51.202;6.774;2024-03-29T18:04:08;2.25;;;1.05;;
29774;SDS011;16676;51.202;6.774;2024-03-29T18:08:12;2.90;;;1.10;;
29774;SDS011;16676;51.202;6.774;2024-03-29T18:12:14;3.75;;;1.10;;
29774;SDS011;16676;51.202;6.774;2024-03-29T18:16:16;2.35;;;0.98;;
29774;SDS011;16676;51.202;6.774;2024-03-29T18:20:17;4.30;;;0.80;;
29774;SDS011;16676;51.202;6.774;2024-03-29T18:24:20;2.75;;;1.05;;
29774;SDS011;16676;51.202;6.774;2024-03-29T18:28:22;1.95;;;0.88;;
29774;SDS011;16676;51.202;6.774;2024-03-29T18:32:27;1.15;;;0.70;;
29774;SDS011;16676;51.202;6.774;2024-03-29T18:36:29;2.28;;;1.13;;
29774;SDS011;16676;51.202;6.774;2024-03-29T18:40:33;1.52;;;0.80;;
29774;SDS011;16676;51.202;6.774;2024-03-29T18:44:35;1.38;;;1.00;;
29774;SDS011;16676;51.202;6.774;2024-03-29T18:48:37;2.88;;;0.98;;
29774;SDS011;16676;51.202;6.774;2024-03-29T18:52:39;1.27;;;0.60;;
29774;SDS011;16676;51.202;6.774;2024-03-29T18:56:42;2.35;;;0.90;;
29774;SDS011;16676;51.202;6.774;2024-03-29T19:00:44;1.38;;;0.90;;
29774;SDS011;16676;51.202;6.774;2024-03-29T19:04:46;2.33;;;0.90;;
29774;SDS011;16676;51.202;6.774;2024-03-29T19:08:48;1.38;;;0.77;;
29774;SDS011;16676;51.202;6.774;2024-03-29T19:12:51;1.83;;;0.88;;
29774;SDS011;16676;51.202;6.774;2024-03-29T19:16:55;1.13;;;0.60;;
29774;SDS011;16676;51.202;6.774;2024-03-29T19:20:57;1.58;;;0.85;;
29774;SDS011;16676;51.202;6.774;2024-03-29T19:24:59;2.00;;;0.80;;
29774;SDS011;16676;51.202;6.774;2024-03-29T19:29:02;2.40;;;0.82;;
29774;SDS011;16676;51.202;6.774;2024-03-29T19:33:04;1.10;;;0.90;;
29774;SDS011;16676;51.202;6.774;2024-03-29T19:37:06;1.50;;;0.65;;
29774;SDS011;16676;51.202;6.774;2024-03-29T19:41:07;1.13;;;0.70;;
29774;SDS011;16676;51.202;6.774;2024-03-29T19:45:10;2.65;;;0.70;;
29774;SDS011;16676;51.202;6.774;2024-03-29T19:49:13;1.75;;;0.82;;
29774;SDS011;16676;51.202;6.774;2024-03-29T19:53:18;1.52;;;0.70;;
29774;SDS011;16676;51.202;6.774;2024-03-29T19:57:20;1.92;;;0.98;;
29774;SDS011;16676;51.202;6.774;2024-03-29T20:01:24;1.40;;;0.60;;
29774;SDS011;16676;51.202;6.774;2024-03-29T20:05:26;1.05;;;0.65;;
29774;SDS011;16676;51.202;6.774;2024-03-29T20:09:28;0.82;;;0.47;;
29774;SDS011;16676;51.202;6.774;2024-03-29T20:13:31;1.48;;;0.60;;
29774;SDS011;16676;51.202;6.774;2024-03-29T20:17:35;2.17;;;0.75;;
29774;SDS011;16676;51.202;6.774;2024-03-29T20:21:37;2.78;;;0.95;;
29774;SDS011;16676;51.202;6.774;2024-03-29T20:25:39;1.27;;;0.63;;
29774;SDS011;16676;51.202;6.774;2024-03-29T20:29:42;1.25;;;0.82;;
29774;SDS011;16676;51.202;6.774;2024-03-29T20:33:46;1.02;;;0.60;;
29774;SDS011;16676;51.202;6.774;2024-03-29T20:37:48;1.38;;;0.52;;
29774;SDS011;16676;51.202;6.774;2024-03-29T20:41:50;1.30;;;0.63;;
29774;SDS011;16676;51.202;6.774;2024-03-29T20:45:52;0.73;;;0.52;;
29774;SDS011;16676;51.202;6.774;2024-03-29T20:49:55;0.85;;;0.70;;
29774;SDS011;16676;51.202;6.774;2024-03-29T20:53:57;1.27;;;0.50;;
29774;SDS011;16676;51.202;6.774;2024-03-29T20:57:59;2.42;;;0.80;;
29774;SDS011;16676;51.202;6.774;2024-03-29T21:02:01;1.20;;;0.75;;
29774;SDS011;16676;51.202;6.774;2024-03-29T21:06:22;1.20;;;0.70;;
29774;SDS011;16676;51.202;6.774;2024-03-29T21:10:24;1.13;;;0.60;;
29774;SDS011;16676;51.202;6.774;2024-03-29T21:14:26;0.90;;;0.60;;
29774;SDS011;16676;51.202;6.774;2024-03-29T21:18:28;0.93;;;0.60;;
29774;SDS011;16676;51.202;6.774;2024-03-29T21:22:32;1.23;;;0.68;;
29774;SDS011;16676;51.202;6.774;2024-03-29T21:26:34;1.17;;;0.60;;
29774;SDS011;16676;51.202;6.774;2024-03-29T21:30:36;1.30;;;0.70;;
29774;SDS011;16676;51.202;6.774;2024-03-29T21:34:39;1.77;;;0.73;;
29774;SDS011;16676;51.202;6.774;2024-03-29T21:38:42;0.68;;;0.50;;
29774;SDS011;16676;51.202;6.774;2024-03-29T21:42:44;0.75;;;0.40;;
29774;SDS011;16676;51.202;6.774;2024-03-29T21:46:46;0.57;;;0.40;;
29774;SDS011;16676;51.202;6.774;2024-03-29T21:50:47;0.75;;;0.50;;
29774;SDS011;16676;51.202;6.774;2024-03-29T21:54:51;1.05;;;0.45;;
29774;SDS011;16676;51.202;6.774;2024-03-29T21:58:53;1.45;;;0.68;;
29774;SDS011;16676;51.202;6.774;2024-03-29T22:02:55;2.03;;;0.70;;
29774;SDS011;16676;51.202;6.774;2024-03-29T22:06:56;0.55;;;0.50;;
29774;SDS011;16676;51.202;6.774;2024-03-29T22:10:59;1.27;;;0.60;;
29774;SDS011;16676;51.202;6.774;2024-03-29T22:15:01;1.10;;;0.50;;
29774;SDS011;16676;51.202;6.774;2024-03-29T22:19:04;1.10;;;0.60;;
29774;SDS011;16676;51.202;6.774;2024-03-29T22:23:07;1.30;;;0.70;;
29774;SDS011;16676;51.202;6.774;2024-03-29T22:27:10;0.45;;;0.45;;
29774;SDS011;16676;51.202;6.774;2024-03-29T22:31:12;0.73;;;0.52;;
29774;SDS011;16676;51.202;6.774;2024-03-29T22:35:14;1.20;;;0.52;;
29774;SDS011;16676;51.202;6.774;2024-03-29T22:39:16;0.45;;;0.45;;
29774;SDS011;16676;51.202;6.774;2024-03-29T22:43:19;1.02;;;0.43;;
29774;SDS011;16676;51.202;6.774;2024-03-29T22:47:21;0.80;;;0.60;;
29774;SDS011;16676;51.202;6.774;2024-03-29T22:51:22;1.05;;;0.52;;
29774;SDS011;16676;51.202;6.774;2024-03-29T22:55:24;1.17;;;0.50;;
29774;SDS011;16676;51.202;6.774;2024-03-29T22:59:27;0.70;;;0.47;;
29774;SDS011;16676;51.202;6.774;2024-03-29T23:03:29;1.00;;;0.50;;
29774;SDS011;16676;51.202;6.774;2024-03-29T23:07:31;1.00;;;0.47;;
29774;SDS011;16676;51.202;6.774;2024-03-29T23:11:33;0.70;;;0.55;;
29774;SDS011;16676;51.202;6.774;2024-03-29T23:15:37;1.17;;;0.70;;
29774;SDS011;16676;51.202;6.774;2024-03-29T23:19:39;0.60;;;0.40;;
29774;SDS011;16676;51.202;6.774;2024-03-29T23:23:41;2.15;;;0.52;;
29774;SDS011;16676;51.202;6.774;2024-03-29T23:27:42;0.70;;;0.50;;
29774;SDS011;16676;51.202;6.774;2024-03-29T23:31:45;1.05;;;0.50;;
29774;SDS011;16676;51.202;6.774;2024-03-29T23:35:50;1.02;;;0.50;;
29774;SDS011;16676;51.202;6.774;2024-03-29T23:39:53;0.73;;;0.50;;
29774;SDS011;16676;51.202;6.774;2024-03-29T23:43:55;0.80;;;0.38;;
29774;SDS011;16676;51.202;6.774;2024-03-29T23:47:58;0.68;;;0.38;;
29774;SDS011;16676;51.202;6.774;2024-03-29T23:52:00;0.95;;;0.30;;
29774;SDS011;16676;51.202;6.774;2024-03-29T23:56:03;0.73;;;0.60;;
